createdAt,value
2023-02-26T00:00:36.823Z,39.88
2023-02-26T00:03:04.334Z,39.70
2023-02-26T00:05:31.500Z,41.36
2023-02-26T00:07:58.685Z,40.16
2023-02-26T00:10:26.151Z,41.63
2023-02-26T00:12:53.594Z,40.11
2023-02-26T00:15:21.034Z,38.82
2023-02-26T00:18:02.257Z,40.46
2023-02-26T00:20:29.609Z,39.66
2023-02-26T00:22:57.223Z,38.87
2023-02-26T00:25:24.358Z,39.66
2023-02-26T00:27:51.726Z,39.17
2023-02-26T00:30:19.383Z,38.78
2023-02-26T00:32:46.796Z,41.50
2023-02-26T00:35:16.494Z,40.31
2023-02-26T00:37:44.660Z,39.75
2023-02-26T00:40:16.809Z,40.15
2023-02-26T00:42:45.216Z,42.56
2023-02-26T00:45:12.758Z,42.91
2023-02-26T00:47:43.522Z,44.33
2023-02-26T00:50:10.939Z,41.92
2023-02-26T00:52:39.837Z,42.23
2023-02-26T00:55:07.091Z,42.83
2023-02-26T00:57:34.564Z,42.02
2023-02-26T01:00:02.748Z,41.46
2023-02-26T01:02:30.066Z,39.62
2023-02-26T01:04:57.635Z,41.86
2023-02-26T01:07:24.813Z,42.72
2023-02-26T01:09:53.132Z,39.82
2023-02-26T01:12:22.221Z,41.02
2023-02-26T01:14:50.551Z,41.59
2023-02-26T01:17:25.887Z,42.82
2023-02-26T01:19:57.332Z,42.29
2023-02-26T01:22:36.230Z,42.12
2023-02-26T01:25:05.592Z,43.54
2023-02-26T01:27:32.934Z,43.13
2023-02-26T01:30:00.191Z,42.51
2023-02-26T01:32:36.419Z,43.87
2023-02-26T01:35:31.502Z,43.26
2023-02-26T01:38:04.055Z,44.13
2023-02-26T01:40:50.100Z,43.54
2023-02-26T01:43:20.261Z,41.71
2023-02-26T01:45:55.824Z,44.76
2023-02-26T01:48:29.817Z,43.34
2023-02-26T01:50:58.335Z,42.17
2023-02-26T01:53:26.710Z,44.95
2023-02-26T01:55:58.042Z,42.29
2023-02-26T01:58:26.394Z,40.97
2023-02-26T02:00:53.577Z,40.37
2023-02-26T02:03:21.092Z,40.05
2023-02-26T02:05:51.058Z,40.42
2023-02-26T02:08:19.174Z,41.62
2023-02-26T02:10:47.089Z,38.99
2023-02-26T02:13:14.307Z,39.42
2023-02-26T02:16:03.781Z,39.77
2023-02-26T02:18:39.348Z,39.63
2023-02-26T02:21:06.789Z,38.74
2023-02-26T02:23:37.153Z,38.60
2023-02-26T02:26:04.284Z,41.00
2023-02-26T02:28:55.057Z,38.92
2023-02-26T02:31:22.949Z,37.96
2023-02-26T02:33:52.506Z,38.57
2023-02-26T02:36:26.624Z,38.16
2023-02-26T02:38:55.811Z,37.82
2023-02-26T02:41:25.482Z,36.95
2023-02-26T02:43:53.874Z,37.29
2023-02-26T02:46:30.940Z,36.50
2023-02-26T02:49:02.077Z,37.02
2023-02-26T02:51:33.922Z,36.61
2023-02-26T02:54:01.103Z,38.27
2023-02-26T02:56:36.995Z,39.25
2023-02-26T02:59:19.419Z,38.73
2023-02-26T03:01:47.301Z,38.19
2023-02-26T03:04:15.320Z,38.58
2023-02-26T03:06:42.576Z,39.84
2023-02-26T03:09:11.155Z,39.95
2023-02-26T03:11:41.468Z,40.62
2023-02-26T03:14:10.284Z,43.81
2023-02-26T03:16:41.040Z,42.97
2023-02-26T03:19:28.439Z,44.30
2023-02-26T03:22:07.319Z,43.74
2023-02-26T03:24:37.936Z,45.21
2023-02-26T03:27:18.932Z,43.87
2023-02-26T03:29:54.518Z,42.88
2023-02-26T03:32:25.133Z,43.60
2023-02-26T03:35:06.366Z,42.60
2023-02-26T03:37:37.444Z,42.39
2023-02-26T03:40:09.755Z,42.01
2023-02-26T03:42:37.631Z,42.17
2023-02-26T03:45:13.883Z,43.81
2023-02-26T03:47:42.139Z,44.42
2023-02-26T03:50:11.705Z,43.86
2023-02-26T03:52:40.514Z,43.12
2023-02-26T03:55:13.488Z,44.80
2023-02-26T03:57:44.272Z,44.56
2023-02-26T04:00:13.430Z,44.31
2023-02-26T04:02:43.467Z,43.98
2023-02-26T04:05:19.055Z,43.15
2023-02-26T04:07:47.140Z,45.01
2023-02-26T04:10:15.593Z,44.60
2023-02-26T04:12:42.762Z,44.22
2023-02-26T04:15:10.235Z,43.73
2023-02-26T04:17:37.766Z,43.06
2023-02-26T04:20:08.562Z,43.33
2023-02-26T04:22:35.717Z,41.33
2023-02-26T04:25:03.227Z,43.44
2023-02-26T04:27:30.979Z,44.23
2023-02-26T04:29:58.207Z,42.89
2023-02-26T04:32:25.829Z,44.31
2023-02-26T04:34:53.300Z,43.41
2023-02-26T04:37:20.707Z,43.68
2023-02-26T04:39:48.451Z,43.48
2023-02-26T04:42:15.637Z,43.28
2023-02-26T04:44:42.829Z,43.22
2023-02-26T04:47:12.955Z,42.06
2023-02-26T04:49:40.181Z,41.68
2023-02-26T04:52:07.513Z,44.88
2023-02-26T04:54:35.329Z,47.83
2023-02-26T04:57:02.527Z,46.99
2023-02-26T04:59:30.035Z,46.08
2023-02-26T05:01:57.733Z,45.24
2023-02-26T05:04:25.722Z,46.88
2023-02-26T05:06:53.964Z,46.60
2023-02-26T05:09:21.904Z,47.33
2023-02-26T05:11:49.740Z,47.13
2023-02-26T05:14:17.274Z,47.10
2023-02-26T05:16:44.770Z,45.87
2023-02-26T05:19:11.942Z,46.43
2023-02-26T05:21:39.238Z,49.65
2023-02-26T05:24:06.909Z,48.64
2023-02-26T05:26:34.096Z,48.98
2023-02-26T05:29:01.262Z,46.87
2023-02-26T05:31:29.958Z,46.79
2023-02-26T05:33:57.166Z,47.57
2023-02-26T05:36:24.622Z,46.20
2023-02-26T05:38:53.144Z,44.70
2023-02-26T05:41:20.304Z,44.91
2023-02-26T05:43:47.539Z,43.41
2023-02-26T05:46:15.066Z,46.27
2023-02-26T05:48:44.654Z,48.85
2023-02-26T05:51:12.807Z,45.94
2023-02-26T05:53:40.271Z,44.74
2023-02-26T05:56:07.705Z,44.62
2023-02-26T05:58:35.007Z,44.64
2023-02-26T06:01:02.444Z,45.77
2023-02-26T06:03:29.934Z,44.73
2023-02-26T06:05:57.104Z,49.14
2023-02-26T06:08:24.275Z,48.54
2023-02-26T06:10:52.319Z,48.37
2023-02-26T06:13:19.555Z,49.31
2023-02-26T06:15:47.531Z,47.83
2023-02-26T06:18:15.008Z,46.17
2023-02-26T06:20:43.399Z,45.58
2023-02-26T06:23:10.600Z,45.37
2023-02-26T06:25:38.053Z,46.61
2023-02-26T06:28:05.280Z,46.73
2023-02-26T06:30:32.482Z,45.03
2023-02-26T06:33:00.021Z,44.87
2023-02-26T06:35:29.964Z,43.30
2023-02-26T06:37:57.342Z,46.59
2023-02-26T06:40:24.873Z,48.00
2023-02-26T06:42:52.038Z,45.98
2023-02-26T06:45:19.324Z,47.76
2023-02-26T06:47:47.038Z,46.71
2023-02-26T06:50:14.240Z,47.69
2023-02-26T06:52:41.398Z,46.53
2023-02-26T06:55:09.126Z,47.59
2023-02-26T06:57:36.310Z,47.50
2023-02-26T07:00:04.849Z,45.84
2023-02-26T07:02:32.412Z,46.48
2023-02-26T07:04:59.588Z,47.20
2023-02-26T07:07:26.792Z,48.04
2023-02-26T07:09:54.225Z,48.51
2023-02-26T07:12:21.464Z,49.23
2023-02-26T07:14:48.839Z,49.42
2023-02-26T07:17:20.818Z,50.44
2023-02-26T07:19:48.866Z,50.42
2023-02-26T07:22:16.577Z,51.24
2023-02-26T07:24:43.802Z,52.04
2023-02-26T07:27:11.348Z,52.31
2023-02-26T07:29:38.912Z,50.92
2023-02-26T07:32:06.134Z,52.07
2023-02-26T07:34:33.751Z,49.12
2023-02-26T07:37:01.191Z,49.60
2023-02-26T07:39:28.505Z,52.46
2023-02-26T07:41:55.672Z,51.83
2023-02-26T07:44:23.305Z,51.01
2023-02-26T07:46:50.663Z,48.09
2023-02-26T07:49:17.894Z,52.08
2023-02-26T07:51:46.049Z,52.27
2023-02-26T07:54:13.415Z,51.21
2023-02-26T07:56:41.315Z,49.01
2023-02-26T07:59:09.661Z,50.00
2023-02-26T08:01:38.032Z,51.77
2023-02-26T08:04:05.534Z,50.40
2023-02-26T08:06:32.701Z,48.26
2023-02-26T08:08:59.848Z,47.99
2023-02-26T08:11:27.543Z,48.24
2023-02-26T08:13:54.756Z,49.47
2023-02-26T08:16:21.917Z,50.92
2023-02-26T08:18:49.348Z,50.29
2023-02-26T08:21:16.676Z,51.65
2023-02-26T08:23:43.868Z,50.01
2023-02-26T08:26:12.427Z,51.15
2023-02-26T08:28:39.585Z,52.35
2023-02-26T08:31:06.933Z,51.21
2023-02-26T08:33:34.541Z,48.83
2023-02-26T08:36:01.785Z,46.75
2023-02-26T08:38:29.344Z,46.05
2023-02-26T08:40:57.290Z,47.85
2023-02-26T08:43:24.596Z,46.00
2023-02-26T08:45:52.684Z,46.32
2023-02-26T08:48:21.512Z,48.02
2023-02-26T08:50:48.785Z,46.21
2023-02-26T08:53:16.044Z,48.05
2023-02-26T08:55:44.941Z,50.48
2023-02-26T08:58:12.071Z,49.70
2023-02-26T09:00:39.228Z,48.81
2023-02-26T09:03:06.691Z,47.06
2023-02-26T09:05:33.964Z,45.95
2023-02-26T09:08:01.139Z,48.94
2023-02-26T09:10:28.614Z,47.73
2023-02-26T09:12:55.969Z,48.87
2023-02-26T09:15:23.136Z,47.15
2023-02-26T09:17:51.782Z,47.94
2023-02-26T09:20:19.048Z,48.48
2023-02-26T09:22:46.214Z,47.06
2023-02-26T09:25:13.667Z,44.12
2023-02-26T09:27:40.827Z,42.97
2023-02-26T09:30:08.348Z,44.54
2023-02-26T09:32:35.909Z,45.22
2023-02-26T09:35:03.778Z,47.06
2023-02-26T09:37:31.003Z,46.10
2023-02-26T09:39:58.472Z,45.30
2023-02-26T09:42:25.595Z,46.26
2023-02-26T09:44:54.159Z,46.35
2023-02-26T09:47:23.773Z,44.16
2023-02-26T09:49:50.910Z,44.38
2023-02-26T09:52:36.930Z,44.86
2023-02-26T09:55:12.207Z,44.12
2023-02-26T09:57:43.939Z,43.76
2023-02-26T10:00:14.985Z,43.10
2023-02-26T10:02:45.199Z,42.27
2023-02-26T10:05:48.577Z,43.50
2023-02-26T10:08:17.352Z,42.67
2023-02-26T10:10:51.692Z,43.02
2023-02-26T10:13:21.899Z,44.12
2023-02-26T10:15:49.054Z,40.83
2023-02-26T10:18:21.488Z,40.77
2023-02-26T10:20:55.869Z,42.63
2023-02-26T10:23:28.756Z,43.00
2023-02-26T10:26:04.814Z,41.58
2023-02-26T10:28:48.772Z,41.20
2023-02-26T10:31:19.513Z,39.92
2023-02-26T10:33:51.731Z,39.99
2023-02-26T10:36:21.357Z,38.54
2023-02-26T10:38:51.262Z,38.58
2023-02-26T10:41:20.765Z,38.90
2023-02-26T10:43:49.450Z,37.65
2023-02-26T10:46:35.921Z,38.62
2023-02-26T10:49:21.980Z,39.64
2023-02-26T10:51:49.730Z,38.61
2023-02-26T10:54:36.329Z,40.42
2023-02-26T10:57:04.171Z,40.43
2023-02-26T10:59:31.907Z,38.87
2023-02-26T11:01:59.100Z,38.32
2023-02-26T11:04:27.401Z,39.10
2023-02-26T11:06:55.194Z,38.70
2023-02-26T11:09:25.185Z,37.19
2023-02-26T11:12:06.085Z,38.25
2023-02-26T11:14:34.041Z,36.92
2023-02-26T11:17:02.171Z,38.85
2023-02-26T11:19:39.729Z,38.96
2023-02-26T11:22:09.892Z,38.14
2023-02-26T11:24:38.518Z,37.48
2023-02-26T11:27:08.789Z,38.15
2023-02-26T11:29:38.552Z,37.63
2023-02-26T11:32:06.269Z,36.99
2023-02-26T11:34:34.608Z,35.65
2023-02-26T11:37:02.102Z,33.62
2023-02-26T11:39:36.834Z,35.96
2023-02-26T11:42:04.716Z,36.71
2023-02-26T11:44:31.933Z,37.48
2023-02-26T11:46:59.565Z,37.97
2023-02-26T11:49:27.709Z,37.76
2023-02-26T11:52:21.371Z,34.63
2023-02-26T11:54:50.149Z,35.68
2023-02-26T11:57:19.312Z,34.80
2023-02-26T11:59:51.029Z,34.62
2023-02-26T12:02:21.579Z,35.41
2023-02-26T12:04:52.458Z,36.84
2023-02-26T12:07:20.352Z,36.43
2023-02-26T12:09:47.993Z,36.00
2023-02-26T12:12:15.734Z,35.67
2023-02-26T12:14:44.093Z,34.08
2023-02-26T12:17:20.936Z,34.44
2023-02-26T12:20:00.613Z,34.84
2023-02-26T12:22:27.998Z,35.06
2023-02-26T12:24:56.066Z,35.35
2023-02-26T12:27:42.414Z,36.20
2023-02-26T12:30:28.685Z,35.30
2023-02-26T12:32:59.114Z,34.17
2023-02-26T12:35:27.945Z,34.39
2023-02-26T12:38:02.242Z,35.34
2023-02-26T12:40:33.432Z,35.19
2023-02-26T12:43:14.294Z,35.12
2023-02-26T12:45:45.343Z,34.61
2023-02-26T12:48:31.441Z,35.02
2023-02-26T12:51:04.865Z,34.31
2023-02-26T12:53:59.290Z,34.52
2023-02-26T12:56:34.811Z,36.37
2023-02-26T12:59:02.282Z,33.87
2023-02-26T13:02:00.552Z,34.20
2023-02-26T13:04:51.757Z,35.60
2023-02-26T13:07:42.641Z,36.63
2023-02-26T13:10:29.382Z,35.39
2023-02-26T13:13:04.405Z,34.24
2023-02-26T13:15:37.848Z,33.63
2023-02-26T13:18:13.898Z,35.01
2023-02-26T13:20:42.645Z,33.85
2023-02-26T13:23:12.355Z,33.55
2023-02-26T13:25:52.057Z,34.30
2023-02-26T13:28:30.767Z,34.34
2023-02-26T13:30:59.068Z,34.25
2023-02-26T13:33:28.725Z,33.79
2023-02-26T13:35:56.639Z,33.82
2023-02-26T13:38:24.102Z,35.25
2023-02-26T13:41:08.145Z,34.66
2023-02-26T13:43:42.113Z,34.41
2023-02-26T13:46:26.040Z,33.74
2023-02-26T13:49:01.088Z,33.11
2023-02-26T13:51:31.725Z,34.46
2023-02-26T13:54:00.902Z,32.49
2023-02-26T13:56:33.867Z,33.50
2023-02-26T13:59:25.218Z,34.36
2023-02-26T14:01:57.277Z,33.64
2023-02-26T14:04:26.328Z,33.40
2023-02-26T14:06:57.082Z,33.26
2023-02-26T14:09:28.347Z,32.69
2023-02-26T14:11:55.770Z,32.37
2023-02-26T14:14:23.508Z,33.48
2023-02-26T14:17:03.889Z,33.38
2023-02-26T14:19:34.385Z,32.96
2023-02-26T14:22:03.539Z,35.22
2023-02-26T14:24:40.626Z,33.76
2023-02-26T14:27:24.097Z,34.83
2023-02-26T14:29:58.773Z,35.77
2023-02-26T14:32:30.081Z,35.45
2023-02-26T14:35:10.670Z,35.65
2023-02-26T14:37:41.397Z,36.39
2023-02-26T14:40:29.037Z,35.50
2023-02-26T14:42:58.164Z,34.73
2023-02-26T14:45:35.561Z,34.64
2023-02-26T14:48:05.668Z,34.69
2023-02-26T14:50:37.752Z,32.91
2023-02-26T14:53:30.357Z,33.95
2023-02-26T14:56:17.218Z,33.69
2023-02-26T14:58:45.977Z,32.78
2023-02-26T15:01:25.734Z,32.76
2023-02-26T15:04:09.883Z,31.95
2023-02-26T15:06:38.415Z,32.17
2023-02-26T15:09:14.852Z,34.42
2023-02-26T15:12:03.417Z,33.91
2023-02-26T15:14:50.593Z,35.71
2023-02-26T15:17:37.364Z,35.84
2023-02-26T15:20:09.721Z,38.50
2023-02-26T15:22:43.824Z,38.23
2023-02-26T15:25:20.036Z,37.30
2023-02-26T15:27:48.667Z,39.27
2023-02-26T15:30:17.844Z,37.83
2023-02-26T15:32:46.612Z,36.04
2023-02-26T15:35:19.360Z,36.52
2023-02-26T15:37:51.841Z,36.06
2023-02-26T15:40:19.631Z,36.90
2023-02-26T15:42:49.744Z,36.28
2023-02-26T15:45:24.103Z,36.87
2023-02-26T15:47:54.896Z,35.74
2023-02-26T15:50:24.916Z,35.57
2023-02-26T15:52:55.762Z,34.60
2023-02-26T15:55:24.306Z,34.10
2023-02-26T15:57:52.524Z,34.21
2023-02-26T16:00:25.998Z,33.52
2023-02-26T16:03:00.062Z,32.94
2023-02-26T16:05:29.333Z,32.33
2023-02-26T16:07:59.415Z,32.25
2023-02-26T16:10:36.543Z,32.15
2023-02-26T16:13:09.214Z,32.06
2023-02-26T16:15:37.903Z,31.93
2023-02-26T16:18:12.251Z,32.55
2023-02-26T16:20:42.924Z,32.74
2023-02-26T16:23:13.013Z,32.84
2023-02-26T16:25:44.815Z,33.34
2023-02-26T16:28:15.051Z,33.52
2023-02-26T16:30:44.912Z,33.71
2023-02-26T16:33:14.036Z,33.56
2023-02-26T16:35:53.246Z,33.53
2023-02-26T16:38:24.947Z,34.21
2023-02-26T16:40:59.203Z,33.24
2023-02-26T16:43:33.945Z,34.18
2023-02-26T16:46:02.504Z,36.81
2023-02-26T16:48:40.608Z,36.96
2023-02-26T16:51:10.955Z,35.66
2023-02-26T16:53:48.046Z,33.76
2023-02-26T16:56:18.737Z,33.83
2023-02-26T16:58:50.562Z,33.80
2023-02-26T17:01:19.595Z,34.34
2023-02-26T17:03:49.853Z,33.26
2023-02-26T17:06:20.192Z,34.00
2023-02-26T17:08:54.379Z,34.40
2023-02-26T17:11:25.190Z,34.27
2023-02-26T17:14:09.514Z,34.35
2023-02-26T17:16:37.866Z,34.36
2023-02-26T17:19:06.834Z,34.42
2023-02-26T17:21:34.910Z,34.50
2023-02-26T17:24:03.457Z,32.95
2023-02-26T17:26:32.405Z,34.15
2023-02-26T17:29:01.133Z,34.13
2023-02-26T17:31:29.819Z,33.71
2023-02-26T17:33:59.071Z,33.71
2023-02-26T17:36:27.195Z,33.58
2023-02-26T17:38:55.758Z,35.51
2023-02-26T17:41:25.499Z,33.68
2023-02-26T17:43:56.785Z,34.08
2023-02-26T17:46:26.781Z,32.99
2023-02-26T17:48:55.036Z,32.53
2023-02-26T17:51:23.105Z,33.95
2023-02-26T17:53:52.029Z,33.09
2023-02-26T17:56:26.899Z,32.57
2023-02-26T17:58:56.369Z,33.05
2023-02-26T18:01:25.516Z,33.32
2023-02-26T18:03:57.930Z,33.27
2023-02-26T18:06:34.340Z,33.83
2023-02-26T18:09:04.983Z,32.73
2023-02-26T18:11:34.246Z,32.80
2023-02-26T18:14:08.512Z,32.89
2023-02-26T18:16:41.634Z,33.32
2023-02-26T18:19:12.225Z,33.05
2023-02-26T18:21:41.434Z,33.33
2023-02-26T18:24:10.583Z,33.30
2023-02-26T18:26:38.966Z,32.82
2023-02-26T18:29:07.569Z,32.92
2023-02-26T18:31:37.038Z,32.95
2023-02-26T18:34:05.296Z,32.80
2023-02-26T18:36:39.875Z,32.66
2023-02-26T18:39:10.499Z,32.89
2023-02-26T18:41:38.685Z,32.83
2023-02-26T18:44:07.276Z,32.55
2023-02-26T18:46:40.658Z,33.06
2023-02-26T18:49:16.472Z,32.92
2023-02-26T18:51:45.575Z,32.78
2023-02-26T18:54:13.913Z,32.56
2023-02-26T18:56:42.270Z,32.73
2023-02-26T18:59:11.934Z,32.48
2023-02-26T19:01:41.962Z,32.70
2023-02-26T19:04:12.960Z,33.09
2023-02-26T19:06:41.886Z,32.91
2023-02-26T19:09:10.743Z,32.90
2023-02-26T19:11:42.699Z,33.07
2023-02-26T19:14:10.635Z,33.90
2023-02-26T19:16:43.015Z,33.53
2023-02-26T19:19:15.077Z,33.38
2023-02-26T19:21:48.023Z,33.03
2023-02-26T19:24:26.642Z,33.18
2023-02-26T19:26:56.729Z,33.16
2023-02-26T19:29:26.552Z,33.14
2023-02-26T19:31:56.099Z,33.12
2023-02-26T19:34:27.548Z,33.24
2023-02-26T19:36:56.361Z,32.95
2023-02-26T19:39:24.813Z,32.74
2023-02-26T19:41:57.068Z,33.74
2023-02-26T19:44:25.209Z,33.02
2023-02-26T19:46:54.957Z,32.90
2023-02-26T19:49:23.929Z,32.65
2023-02-26T19:51:52.869Z,33.17
2023-02-26T19:54:31.415Z,32.98
2023-02-26T19:57:02.946Z,32.87
2023-02-26T19:59:32.388Z,32.99
2023-02-26T20:02:01.946Z,32.81
2023-02-26T20:04:31.725Z,33.25
2023-02-26T20:07:00.261Z,33.44
2023-02-26T20:09:30.771Z,33.23
2023-02-26T20:12:00.103Z,33.21
2023-02-26T20:14:30.820Z,33.69
2023-02-26T20:17:00.278Z,33.43
2023-02-26T20:19:29.162Z,34.48
2023-02-26T20:21:57.046Z,34.05
2023-02-26T20:24:27.027Z,34.10
2023-02-26T20:26:55.715Z,35.03
2023-02-26T20:29:25.286Z,33.88
2023-02-26T20:31:55.543Z,33.01
2023-02-26T20:34:24.848Z,33.60
2023-02-26T20:36:56.289Z,34.00
2023-02-26T20:39:24.491Z,33.50
2023-02-26T20:41:55.642Z,32.81
2023-02-26T20:44:24.126Z,33.24
2023-02-26T20:46:53.141Z,33.17
2023-02-26T20:49:22.390Z,33.39
2023-02-26T20:51:51.293Z,33.33
2023-02-26T20:54:22.018Z,32.78
2023-02-26T20:56:51.071Z,32.81
2023-02-26T20:59:19.848Z,32.51
2023-02-26T21:01:48.774Z,32.66
2023-02-26T21:04:17.458Z,32.37
2023-02-26T21:06:46.108Z,32.67
2023-02-26T21:09:15.168Z,32.41
2023-02-26T21:11:44.111Z,32.59
2023-02-26T21:14:13.931Z,32.50
2023-02-26T21:16:43.954Z,32.38
2023-02-26T21:19:13.714Z,32.42
2023-02-26T21:21:41.793Z,32.16
2023-02-26T21:24:10.760Z,32.30
2023-02-26T21:26:38.256Z,32.08
2023-02-26T21:29:06.649Z,32.71
2023-02-26T21:31:34.389Z,32.26
2023-02-26T21:34:17.283Z,33.57
2023-02-26T21:36:50.125Z,33.33
2023-02-26T21:39:17.442Z,33.11
2023-02-26T21:41:45.200Z,32.92
2023-02-26T21:44:13.977Z,32.81
2023-02-26T21:46:41.472Z,33.74
2023-02-26T21:49:09.641Z,33.55
2023-02-26T21:51:37.826Z,35.10
2023-02-26T21:54:05.081Z,34.98
2023-02-26T21:56:32.290Z,36.34
2023-02-26T21:58:59.953Z,35.51
2023-02-26T22:01:27.490Z,35.65
2023-02-26T22:03:55.182Z,34.74
2023-02-26T22:06:22.359Z,33.06
2023-02-26T22:08:50.026Z,32.12
2023-02-26T22:11:17.511Z,32.04
2023-02-26T22:13:44.703Z,31.71
2023-02-26T22:16:13.657Z,30.39
2023-02-26T22:18:41.106Z,30.29
2023-02-26T22:21:08.430Z,29.69
2023-02-26T22:23:35.764Z,29.85
2023-02-26T22:26:03.467Z,29.19
2023-02-26T22:28:30.613Z,29.36
2023-02-26T22:30:58.723Z,29.31
2023-02-26T22:33:26.433Z,28.42
2023-02-26T22:35:57.237Z,29.11
2023-02-26T22:38:24.619Z,29.25
2023-02-26T22:40:52.307Z,30.46
2023-02-26T22:43:19.499Z,29.53
2023-02-26T22:45:46.733Z,30.99
2023-02-26T22:48:14.466Z,31.06
2023-02-26T22:50:42.128Z,30.58
2023-02-26T22:53:09.287Z,30.27
2023-02-26T22:55:36.723Z,30.90
2023-02-26T22:58:04.747Z,29.76
2023-02-26T23:00:32.132Z,30.34
2023-02-26T23:02:59.635Z,30.39
2023-02-26T23:05:29.360Z,30.27
2023-02-26T23:07:56.512Z,31.78
2023-02-26T23:10:23.967Z,31.08
2023-02-26T23:12:51.150Z,30.87
2023-02-26T23:15:18.377Z,31.77
2023-02-26T23:17:45.865Z,31.48
2023-02-26T23:20:13.896Z,30.27
2023-02-26T23:22:44.503Z,30.39
2023-02-26T23:25:12.247Z,30.61
2023-02-26T23:27:39.723Z,30.96
2023-02-26T23:30:08.318Z,30.88
2023-02-26T23:32:37.213Z,31.57
2023-02-26T23:35:04.771Z,32.27
2023-02-26T23:37:32.270Z,33.09
2023-02-26T23:39:59.679Z,33.78
2023-02-26T23:42:26.829Z,32.61
2023-02-26T23:44:53.979Z,32.56
2023-02-26T23:47:21.408Z,31.17
2023-02-26T23:49:48.576Z,32.14
2023-02-26T23:52:16.632Z,31.26
2023-02-26T23:54:44.057Z,31.96
2023-02-26T23:57:13.770Z,31.12
2023-02-26T23:59:40.918Z,32.24
